sensor_id;sensor_type;location;lat;lon;timestamp;P1;durP1;ratioP1;P2;durP2;ratioP2
19231;SDS011;9750;48.730;10.294;2023-11-19T00:01:01;15.60;;;13.30;;
19231;SDS011;9750;48.730;10.294;2023-11-19T00:03:30;12.90;;;11.63;;
19231;SDS011;9750;48.730;10.294;2023-11-19T00:06:07;16.50;;;13.97;;
19231;SDS011;9750;48.730;10.294;2023-11-19T00:08:36;13.93;;;12.43;;
19231;SDS011;9750;48.730;10.294;2023-11-19T00:11:04;15.87;;;13.63;;
19231;SDS011;9750;48.730;10.294;2023-11-19T00:13:33;13.30;;;12.00;;
19231;SDS011;9750;48.730;10.294;2023-11-19T00:18:51;12.03;;;10.87;;
19231;SDS011;9750;48.730;10.294;2023-11-19T00:21:18;15.03;;;13.13;;
19231;SDS011;9750;48.730;10.294;2023-11-19T00:23:45;14.67;;;12.87;;
19231;SDS011;9750;48.730;10.294;2023-11-19T00:26:12;14.50;;;13.00;;
19231;SDS011;9750;48.730;10.294;2023-11-19T00:28:41;11.50;;;10.30;;
19231;SDS011;9750;48.730;10.294;2023-11-19T00:31:08;13.63;;;12.03;;
19231;SDS011;9750;48.730;10.294;2023-11-19T00:33:36;12.83;;;11.50;;
19231;SDS011;9750;48.730;10.294;2023-11-19T00:36:03;14.00;;;12.50;;
19231;SDS011;9750;48.730;10.294;2023-11-19T00:38:31;10.83;;;9.83;;
19231;SDS011;9750;48.730;10.294;2023-11-19T00:40:58;13.83;;;12.40;;
19231;SDS011;9750;48.730;10.294;2023-11-19T00:43:27;12.17;;;10.97;;
19231;SDS011;9750;48.730;10.294;2023-11-19T00:45:56;12.17;;;10.97;;
19231;SDS011;9750;48.730;10.294;2023-11-19T00:48:23;12.20;;;10.93;;
19231;SDS011;9750;48.730;10.294;2023-11-19T00:50:52;11.70;;;10.47;;
19231;SDS011;9750;48.730;10.294;2023-11-19T00:53:19;10.73;;;9.73;;
19231;SDS011;9750;48.730;10.294;2023-11-19T00:55:46;13.27;;;11.83;;
19231;SDS011;9750;48.730;10.294;2023-11-19T00:58:13;9.70;;;8.80;;
19231;SDS011;9750;48.730;10.294;2023-11-19T01:00:42;12.67;;;10.67;;
19231;SDS011;9750;48.730;10.294;2023-11-19T01:03:11;10.27;;;9.33;;
19231;SDS011;9750;48.730;10.294;2023-11-19T01:05:40;12.23;;;10.90;;
19231;SDS011;9750;48.730;10.294;2023-11-19T01:08:08;10.27;;;9.20;;
19231;SDS011;9750;48.730;10.294;2023-11-19T01:10:36;11.30;;;10.20;;
19231;SDS011;9750;48.730;10.294;2023-11-19T01:13:04;9.23;;;8.43;;
19231;SDS011;9750;48.730;10.294;2023-11-19T01:18:55;9.93;;;9.03;;
19231;SDS011;9750;48.730;10.294;2023-11-19T01:21:22;11.97;;;10.67;;
19231;SDS011;9750;48.730;10.294;2023-11-19T01:23:49;9.33;;;8.43;;
19231;SDS011;9750;48.730;10.294;2023-11-19T01:29:25;9.13;;;8.30;;
19231;SDS011;9750;48.730;10.294;2023-11-19T01:31:52;10.03;;;9.03;;
19231;SDS011;9750;48.730;10.294;2023-11-19T01:34:21;8.80;;;8.00;;
19231;SDS011;9750;48.730;10.294;2023-11-19T01:36:48;11.00;;;9.83;;
19231;SDS011;9750;48.730;10.294;2023-11-19T01:39:15;8.83;;;8.03;;
19231;SDS011;9750;48.730;10.294;2023-11-19T01:41:43;10.73;;;9.63;;
19231;SDS011;9750;48.730;10.294;2023-11-19T01:44:10;8.87;;;8.07;;
19231;SDS011;9750;48.730;10.294;2023-11-19T01:46:38;10.47;;;9.47;;
19231;SDS011;9750;48.730;10.294;2023-11-19T01:49:08;8.67;;;7.87;;
19231;SDS011;9750;48.730;10.294;2023-11-19T01:51:38;10.00;;;9.10;;
19231;SDS011;9750;48.730;10.294;2023-11-19T01:54:06;8.30;;;7.60;;
19231;SDS011;9750;48.730;10.294;2023-11-19T01:56:34;11.13;;;8.53;;
19231;SDS011;9750;48.730;10.294;2023-11-19T01:59:02;7.57;;;6.97;;
19231;SDS011;9750;48.730;10.294;2023-11-19T02:01:30;9.90;;;8.90;;
19231;SDS011;9750;48.730;10.294;2023-11-19T02:03:59;7.73;;;7.03;;
19231;SDS011;9750;48.730;10.294;2023-11-19T02:06:29;9.10;;;8.30;;
19231;SDS011;9750;48.730;10.294;2023-11-19T02:08:59;8.80;;;8.07;;
19231;SDS011;9750;48.730;10.294;2023-11-19T02:11:27;8.23;;;7.50;;
19231;SDS011;9750;48.730;10.294;2023-11-19T02:13:55;8.07;;;7.27;;
19231;SDS011;9750;48.730;10.294;2023-11-19T02:16:23;9.13;;;8.33;;
19231;SDS011;9750;48.730;10.294;2023-11-19T02:18:50;6.90;;;6.30;;
19231;SDS011;9750;48.730;10.294;2023-11-19T02:21:18;7.83;;;7.13;;
19231;SDS011;9750;48.730;10.294;2023-11-19T02:23:45;8.03;;;7.33;;
19231;SDS011;9750;48.730;10.294;2023-11-19T02:26:22;8.90;;;8.20;;
19231;SDS011;9750;48.730;10.294;2023-11-19T02:28:56;8.27;;;7.57;;
19231;SDS011;9750;48.730;10.294;2023-11-19T02:31:23;9.50;;;8.60;;
19231;SDS011;9750;48.730;10.294;2023-11-19T02:33:52;8.37;;;7.57;;
19231;SDS011;9750;48.730;10.294;2023-11-19T02:36:20;6.90;;;6.40;;
19231;SDS011;9750;48.730;10.294;2023-11-19T02:38:48;8.07;;;7.37;;
19231;SDS011;9750;48.730;10.294;2023-11-19T02:41:15;6.40;;;5.90;;
19231;SDS011;9750;48.730;10.294;2023-11-19T02:43:42;7.87;;;7.07;;
19231;SDS011;9750;48.730;10.294;2023-11-19T02:49:09;7.33;;;6.63;;
19231;SDS011;9750;48.730;10.294;2023-11-19T02:51:36;6.73;;;6.13;;
19231;SDS011;9750;48.730;10.294;2023-11-19T02:54:03;7.73;;;7.03;;
19231;SDS011;9750;48.730;10.294;2023-11-19T02:56:31;8.40;;;7.60;;
19231;SDS011;9750;48.730;10.294;2023-11-19T02:59:02;8.37;;;7.57;;
19231;SDS011;9750;48.730;10.294;2023-11-19T03:01:37;6.17;;;5.67;;
19231;SDS011;9750;48.730;10.294;2023-11-19T03:04:10;8.33;;;7.47;;
19231;SDS011;9750;48.730;10.294;2023-11-19T03:06:42;7.27;;;6.57;;
19231;SDS011;9750;48.730;10.294;2023-11-19T03:09:09;7.70;;;7.00;;
19231;SDS011;9750;48.730;10.294;2023-11-19T03:11:36;6.30;;;5.80;;
19231;SDS011;9750;48.730;10.294;2023-11-19T03:14:04;7.53;;;6.83;;
19231;SDS011;9750;48.730;10.294;2023-11-19T03:16:31;5.80;;;5.30;;
19231;SDS011;9750;48.730;10.294;2023-11-19T03:18:58;7.13;;;6.43;;
19231;SDS011;9750;48.730;10.294;2023-11-19T03:21:29;5.83;;;5.33;;
19231;SDS011;9750;48.730;10.294;2023-11-19T03:23:56;6.67;;;6.07;;
19231;SDS011;9750;48.730;10.294;2023-11-19T03:26:25;6.30;;;5.80;;
19231;SDS011;9750;48.730;10.294;2023-11-19T03:28:53;6.27;;;5.77;;
19231;SDS011;9750;48.730;10.294;2023-11-19T03:31:22;6.27;;;5.77;;
19231;SDS011;9750;48.730;10.294;2023-11-19T03:33:50;6.87;;;6.27;;
19231;SDS011;9750;48.730;10.294;2023-11-19T03:36:17;5.40;;;4.90;;
19231;SDS011;9750;48.730;10.294;2023-11-19T03:38:46;6.67;;;6.03;;
19231;SDS011;9750;48.730;10.294;2023-11-19T03:41:13;5.23;;;4.83;;
19231;SDS011;9750;48.730;10.294;2023-11-19T03:43:42;6.77;;;6.00;;
19231;SDS011;9750;48.730;10.294;2023-11-19T03:46:16;6.17;;;5.67;;
19231;SDS011;9750;48.730;10.294;2023-11-19T03:48:46;7.23;;;6.60;;
19231;SDS011;9750;48.730;10.294;2023-11-19T03:51:13;5.77;;;5.27;;
19231;SDS011;9750;48.730;10.294;2023-11-19T03:53:41;5.80;;;5.23;;
19231;SDS011;9750;48.730;10.294;2023-11-19T03:56:24;6.67;;;5.67;;
19231;SDS011;9750;48.730;10.294;2023-11-19T03:58:52;5.50;;;5.00;;
19231;SDS011;9750;48.730;10.294;2023-11-19T04:01:19;6.23;;;5.63;;
19231;SDS011;9750;48.730;10.294;2023-11-19T04:03:47;5.37;;;4.87;;
19231;SDS011;9750;48.730;10.294;2023-11-19T04:06:14;6.13;;;5.63;;
19231;SDS011;9750;48.730;10.294;2023-11-19T04:08:41;6.47;;;5.87;;
19231;SDS011;9750;48.730;10.294;2023-11-19T04:11:09;6.80;;;6.10;;
19231;SDS011;9750;48.730;10.294;2023-11-19T04:13:37;6.20;;;5.30;;
19231;SDS011;9750;48.730;10.294;2023-11-19T04:19:27;5.33;;;4.83;;
19231;SDS011;9750;48.730;10.294;2023-11-19T04:21:54;5.23;;;4.73;;
19231;SDS011;9750;48.730;10.294;2023-11-19T04:24:22;5.27;;;4.87;;
19231;SDS011;9750;48.730;10.294;2023-11-19T04:26:49;5.50;;;5.00;;
19231;SDS011;9750;48.730;10.294;2023-11-19T04:29:19;4.70;;;4.30;;
19231;SDS011;9750;48.730;10.294;2023-11-19T04:31:46;4.73;;;4.33;;
19231;SDS011;9750;48.730;10.294;2023-11-19T04:34:13;5.03;;;4.60;;
19231;SDS011;9750;48.730;10.294;2023-11-19T04:36:41;4.67;;;4.23;;
19231;SDS011;9750;48.730;10.294;2023-11-19T04:39:09;4.80;;;3.77;;
19231;SDS011;9750;48.730;10.294;2023-11-19T04:41:45;6.33;;;4.60;;
19231;SDS011;9750;48.730;10.294;2023-11-19T04:44:13;4.40;;;4.00;;
19231;SDS011;9750;48.730;10.294;2023-11-19T04:46:42;4.33;;;3.93;;
19231;SDS011;9750;48.730;10.294;2023-11-19T04:49:10;5.43;;;4.00;;
19231;SDS011;9750;48.730;10.294;2023-11-19T04:51:38;5.60;;;5.10;;
19231;SDS011;9750;48.730;10.294;2023-11-19T04:54:07;6.07;;;5.10;;
19231;SDS011;9750;48.730;10.294;2023-11-19T04:56:35;3.40;;;3.10;;
19231;SDS011;9750;48.730;10.294;2023-11-19T04:59:02;3.80;;;3.50;;
19231;SDS011;9750;48.730;10.294;2023-11-19T05:01:31;3.63;;;3.33;;
19231;SDS011;9750;48.730;10.294;2023-11-19T05:03:59;3.60;;;3.30;;
19231;SDS011;9750;48.730;10.294;2023-11-19T05:06:27;8.13;;;7.43;;
19231;SDS011;9750;48.730;10.294;2023-11-19T05:08:55;2.83;;;2.60;;
19231;SDS011;9750;48.730;10.294;2023-11-19T05:11:22;3.17;;;2.67;;
19231;SDS011;9750;48.730;10.294;2023-11-19T05:13:50;2.97;;;2.60;;
19231;SDS011;9750;48.730;10.294;2023-11-19T05:16:19;4.23;;;3.83;;
19231;SDS011;9750;48.730;10.294;2023-11-19T05:18:47;6.30;;;4.13;;
19231;SDS011;9750;48.730;10.294;2023-11-19T05:21:15;3.97;;;3.60;;
19231;SDS011;9750;48.730;10.294;2023-11-19T05:23:43;3.90;;;3.60;;
19231;SDS011;9750;48.730;10.294;2023-11-19T05:29:12;4.07;;;3.67;;
19231;SDS011;9750;48.730;10.294;2023-11-19T05:31:39;4.00;;;3.70;;
19231;SDS011;9750;48.730;10.294;2023-11-19T05:34:06;4.47;;;4.07;;
19231;SDS011;9750;48.730;10.294;2023-11-19T05:36:35;4.03;;;3.60;;
19231;SDS011;9750;48.730;10.294;2023-11-19T05:39:02;3.13;;;2.93;;
19231;SDS011;9750;48.730;10.294;2023-11-19T05:41:30;3.40;;;3.10;;
19231;SDS011;9750;48.730;10.294;2023-11-19T05:43:57;3.70;;;3.33;;
19231;SDS011;9750;48.730;10.294;2023-11-19T05:46:24;3.30;;;3.00;;
19231;SDS011;9750;48.730;10.294;2023-11-19T05:48:52;3.67;;;2.87;;
19231;SDS011;9750;48.730;10.294;2023-11-19T05:51:19;2.43;;;2.23;;
19231;SDS011;9750;48.730;10.294;2023-11-19T05:53:48;3.17;;;2.70;;
19231;SDS011;9750;48.730;10.294;2023-11-19T05:56:34;2.77;;;2.57;;
19231;SDS011;9750;48.730;10.294;2023-11-19T05:59:01;3.80;;;2.80;;
19231;SDS011;9750;48.730;10.294;2023-11-19T06:01:33;3.10;;;2.90;;
19231;SDS011;9750;48.730;10.294;2023-11-19T06:04:01;2.90;;;2.60;;
19231;SDS011;9750;48.730;10.294;2023-11-19T06:06:29;3.20;;;2.90;;
19231;SDS011;9750;48.730;10.294;2023-11-19T06:08:58;2.67;;;2.47;;
19231;SDS011;9750;48.730;10.294;2023-11-19T06:11:27;3.00;;;2.80;;
19231;SDS011;9750;48.730;10.294;2023-11-19T06:13:54;3.10;;;2.80;;
19231;SDS011;9750;48.730;10.294;2023-11-19T06:16:22;3.43;;;3.13;;
19231;SDS011;9750;48.730;10.294;2023-11-19T06:18:49;3.40;;;3.10;;
19231;SDS011;9750;48.730;10.294;2023-11-19T06:21:18;2.97;;;2.77;;
19231;SDS011;9750;48.730;10.294;2023-11-19T06:23:45;3.77;;;3.47;;
19231;SDS011;9750;48.730;10.294;2023-11-19T06:26:15;4.93;;;4.53;;
19231;SDS011;9750;48.730;10.294;2023-11-19T06:28:43;3.40;;;3.10;;
19231;SDS011;9750;48.730;10.294;2023-11-19T06:31:10;3.80;;;2.27;;
19231;SDS011;9750;48.730;10.294;2023-11-19T06:33:39;4.10;;;3.27;;
19231;SDS011;9750;48.730;10.294;2023-11-19T06:36:07;9.03;;;8.33;;
19231;SDS011;9750;48.730;10.294;2023-11-19T06:38:34;1.90;;;1.80;;
19231;SDS011;9750;48.730;10.294;2023-11-19T06:41:02;11.27;;;9.53;;
19231;SDS011;9750;48.730;10.294;2023-11-19T06:43:36;2.80;;;2.60;;
19231;SDS011;9750;48.730;10.294;2023-11-19T06:46:04;5.17;;;4.67;;
19231;SDS011;9750;48.730;10.294;2023-11-19T06:48:32;6.70;;;6.03;;
19231;SDS011;9750;48.730;10.294;2023-11-19T06:50:59;3.37;;;3.07;;
19231;SDS011;9750;48.730;10.294;2023-11-19T06:53:27;3.13;;;2.80;;
19231;SDS011;9750;48.730;10.294;2023-11-19T06:56:00;4.83;;;4.40;;
19231;SDS011;9750;48.730;10.294;2023-11-19T06:58:30;4.13;;;3.00;;
19231;SDS011;9750;48.730;10.294;2023-11-19T07:01:01;3.43;;;3.10;;
19231;SDS011;9750;48.730;10.294;2023-11-19T07:03:29;3.40;;;3.10;;
19231;SDS011;9750;48.730;10.294;2023-11-19T07:05:57;2.63;;;2.20;;
19231;SDS011;9750;48.730;10.294;2023-11-19T07:08:24;2.20;;;2.00;;
19231;SDS011;9750;48.730;10.294;2023-11-19T07:10:51;2.63;;;2.43;;
19231;SDS011;9750;48.730;10.294;2023-11-19T07:13:19;2.43;;;1.70;;
19231;SDS011;9750;48.730;10.294;2023-11-19T07:15:46;3.43;;;3.23;;
19231;SDS011;9750;48.730;10.294;2023-11-19T07:18:15;5.03;;;3.70;;
19231;SDS011;9750;48.730;10.294;2023-11-19T07:20:43;4.83;;;4.43;;
19231;SDS011;9750;48.730;10.294;2023-11-19T07:23:11;6.23;;;4.20;;
19231;SDS011;9750;48.730;10.294;2023-11-19T07:25:39;11.53;;;5.90;;
19231;SDS011;9750;48.730;10.294;2023-11-19T07:28:07;2.93;;;2.73;;
19231;SDS011;9750;48.730;10.294;2023-11-19T07:30:35;5.87;;;2.87;;
19231;SDS011;9750;48.730;10.294;2023-11-19T07:33:02;16.03;;;9.77;;
19231;SDS011;9750;48.730;10.294;2023-11-19T07:35:31;1.60;;;1.50;;
19231;SDS011;9750;48.730;10.294;2023-11-19T07:37:59;1.90;;;1.60;;
19231;SDS011;9750;48.730;10.294;2023-11-19T07:40:26;1.90;;;1.70;;
19231;SDS011;9750;48.730;10.294;2023-11-19T07:42:53;2.33;;;1.97;;
19231;SDS011;9750;48.730;10.294;2023-11-19T07:45:21;1.90;;;1.80;;
19231;SDS011;9750;48.730;10.294;2023-11-19T07:47:48;2.80;;;2.60;;
19231;SDS011;9750;48.730;10.294;2023-11-19T07:50:16;3.13;;;2.70;;
19231;SDS011;9750;48.730;10.294;2023-11-19T07:52:46;5.17;;;4.20;;
19231;SDS011;9750;48.730;10.294;2023-11-19T07:55:14;5.43;;;4.67;;
19231;SDS011;9750;48.730;10.294;2023-11-19T07:57:41;4.50;;;4.10;;
19231;SDS011;9750;48.730;10.294;2023-11-19T08:00:09;7.97;;;7.17;;
19231;SDS011;9750;48.730;10.294;2023-11-19T08:02:37;6.47;;;5.43;;
19231;SDS011;9750;48.730;10.294;2023-11-19T08:05:05;5.40;;;4.90;;
19231;SDS011;9750;48.730;10.294;2023-11-19T08:07:33;5.37;;;4.87;;
19231;SDS011;9750;48.730;10.294;2023-11-19T08:10:01;5.73;;;5.23;;
19231;SDS011;9750;48.730;10.294;2023-11-19T08:12:30;5.17;;;4.70;;
19231;SDS011;9750;48.730;10.294;2023-11-19T08:14:57;5.33;;;4.83;;
19231;SDS011;9750;48.730;10.294;2023-11-19T08:17:25;4.63;;;4.27;;
19231;SDS011;9750;48.730;10.294;2023-11-19T08:19:52;4.37;;;3.97;;
19231;SDS011;9750;48.730;10.294;2023-11-19T08:22:19;4.70;;;4.30;;
19231;SDS011;9750;48.730;10.294;2023-11-19T08:24:47;4.70;;;4.20;;
19231;SDS011;9750;48.730;10.294;2023-11-19T08:27:16;3.97;;;3.63;;
19231;SDS011;9750;48.730;10.294;2023-11-19T08:29:44;6.30;;;5.77;;
19231;SDS011;9750;48.730;10.294;2023-11-19T08:32:11;6.53;;;4.87;;
19231;SDS011;9750;48.730;10.294;2023-11-19T08:34:38;3.50;;;3.20;;
19231;SDS011;9750;48.730;10.294;2023-11-19T08:37:05;4.57;;;4.17;;
19231;SDS011;9750;48.730;10.294;2023-11-19T08:39:33;6.70;;;5.53;;
19231;SDS011;9750;48.730;10.294;2023-11-19T08:42:03;4.33;;;3.93;;
19231;SDS011;9750;48.730;10.294;2023-11-19T08:44:32;3.73;;;3.43;;
19231;SDS011;9750;48.730;10.294;2023-11-19T08:46:59;5.90;;;5.00;;
19231;SDS011;9750;48.730;10.294;2023-11-19T08:49:26;8.23;;;6.83;;
19231;SDS011;9750;48.730;10.294;2023-11-19T08:51:54;6.77;;;6.17;;
19231;SDS011;9750;48.730;10.294;2023-11-19T08:54:21;6.63;;;6.03;;
19231;SDS011;9750;48.730;10.294;2023-11-19T08:56:48;12.47;;;9.47;;
19231;SDS011;9750;48.730;10.294;2023-11-19T08:59:15;9.07;;;8.27;;
19231;SDS011;9750;48.730;10.294;2023-11-19T09:01:45;13.40;;;11.27;;
19231;SDS011;9750;48.730;10.294;2023-11-19T09:04:12;7.67;;;6.90;;
19231;SDS011;9750;48.730;10.294;2023-11-19T09:09:39;6.70;;;5.60;;
19231;SDS011;9750;48.730;10.294;2023-11-19T09:12:06;7.17;;;6.47;;
19231;SDS011;9750;48.730;10.294;2023-11-19T09:14:34;7.33;;;6.57;;
19231;SDS011;9750;48.730;10.294;2023-11-19T09:17:02;9.43;;;8.53;;
19231;SDS011;9750;48.730;10.294;2023-11-19T09:19:32;7.93;;;6.77;;
19231;SDS011;9750;48.730;10.294;2023-11-19T09:22:01;5.50;;;5.00;;
19231;SDS011;9750;48.730;10.294;2023-11-19T09:24:43;7.03;;;5.97;;
19231;SDS011;9750;48.730;10.294;2023-11-19T09:27:10;5.33;;;4.93;;
19231;SDS011;9750;48.730;10.294;2023-11-19T09:29:37;4.43;;;4.03;;
19231;SDS011;9750;48.730;10.294;2023-11-19T09:32:06;4.23;;;3.83;;
19231;SDS011;9750;48.730;10.294;2023-11-19T09:34:34;4.43;;;4.13;;
19231;SDS011;9750;48.730;10.294;2023-11-19T09:37:01;4.60;;;4.17;;
19231;SDS011;9750;48.730;10.294;2023-11-19T09:39:29;5.50;;;5.10;;
19231;SDS011;9750;48.730;10.294;2023-11-19T09:41:56;3.50;;;3.20;;
19231;SDS011;9750;48.730;10.294;2023-11-19T09:44:24;4.80;;;2.43;;
19231;SDS011;9750;48.730;10.294;2023-11-19T09:46:51;2.97;;;2.73;;
19231;SDS011;9750;48.730;10.294;2023-11-19T09:49:21;2.27;;;2.07;;
19231;SDS011;9750;48.730;10.294;2023-11-19T09:51:50;3.23;;;2.50;;
19231;SDS011;9750;48.730;10.294;2023-11-19T09:54:17;2.87;;;2.50;;
19231;SDS011;9750;48.730;10.294;2023-11-19T09:56:45;4.37;;;3.97;;
19231;SDS011;9750;48.730;10.294;2023-11-19T09:59:12;3.20;;;2.90;;
19231;SDS011;9750;48.730;10.294;2023-11-19T10:01:40;3.17;;;2.80;;
19231;SDS011;9750;48.730;10.294;2023-11-19T10:04:08;2.20;;;2.00;;
19231;SDS011;9750;48.730;10.294;2023-11-19T10:06:40;2.63;;;2.43;;
19231;SDS011;9750;48.730;10.294;2023-11-19T10:09:08;1.90;;;1.60;;
19231;SDS011;9750;48.730;10.294;2023-11-19T10:11:36;1.80;;;1.53;;
19231;SDS011;9750;48.730;10.294;2023-11-19T10:14:04;1.67;;;1.50;;
19231;SDS011;9750;48.730;10.294;2023-11-19T10:16:34;2.17;;;1.30;;
19231;SDS011;9750;48.730;10.294;2023-11-19T10:19:01;1.90;;;1.47;;
19231;SDS011;9750;48.730;10.294;2023-11-19T10:21:28;1.60;;;1.40;;
19231;SDS011;9750;48.730;10.294;2023-11-19T10:24:01;4.13;;;1.63;;
19231;SDS011;9750;48.730;10.294;2023-11-19T10:26:28;2.37;;;1.97;;
19231;SDS011;9750;48.730;10.294;2023-11-19T10:28:56;1.47;;;1.20;;
19231;SDS011;9750;48.730;10.294;2023-11-19T10:31:23;1.27;;;1.17;;
19231;SDS011;9750;48.730;10.294;2023-11-19T10:33:51;3.83;;;1.10;;
19231;SDS011;9750;48.730;10.294;2023-11-19T10:36:19;1.43;;;1.10;;
19231;SDS011;9750;48.730;10.294;2023-11-19T10:38:51;1.87;;;1.23;;
19231;SDS011;9750;48.730;10.294;2023-11-19T10:41:30;1.53;;;1.10;;
19231;SDS011;9750;48.730;10.294;2023-11-19T10:43:58;1.53;;;1.43;;
19231;SDS011;9750;48.730;10.294;2023-11-19T10:46:36;1.30;;;1.20;;
19231;SDS011;9750;48.730;10.294;2023-11-19T10:49:04;1.20;;;1.10;;
19231;SDS011;9750;48.730;10.294;2023-11-19T10:51:32;1.03;;;1.00;;
19231;SDS011;9750;48.730;10.294;2023-11-19T10:54:02;1.70;;;1.50;;
19231;SDS011;9750;48.730;10.294;2023-11-19T10:56:32;2.60;;;1.10;;
19231;SDS011;9750;48.730;10.294;2023-11-19T10:59:00;1.40;;;1.30;;
19231;SDS011;9750;48.730;10.294;2023-11-19T11:01:34;3.37;;;1.77;;
19231;SDS011;9750;48.730;10.294;2023-11-19T11:04:07;2.07;;;1.10;;
19231;SDS011;9750;48.730;10.294;2023-11-19T11:06:42;2.30;;;1.30;;
19231;SDS011;9750;48.730;10.294;2023-11-19T11:09:09;1.67;;;1.00;;
19231;SDS011;9750;48.730;10.294;2023-11-19T11:11:39;1.70;;;1.10;;
19231;SDS011;9750;48.730;10.294;2023-11-19T11:14:09;2.20;;;1.40;;
19231;SDS011;9750;48.730;10.294;2023-11-19T11:16:40;1.10;;;1.00;;
19231;SDS011;9750;48.730;10.294;2023-11-19T11:19:10;1.33;;;1.07;;
19231;SDS011;9750;48.730;10.294;2023-11-19T11:21:38;1.10;;;1.00;;
19231;SDS011;9750;48.730;10.294;2023-11-19T11:24:20;1.20;;;1.10;;
19231;SDS011;9750;48.730;10.294;2023-11-19T11:27:02;1.90;;;1.10;;
19231;SDS011;9750;48.730;10.294;2023-11-19T11:29:55;2.00;;;1.10;;
19231;SDS011;9750;48.730;10.294;2023-11-19T11:32:33;1.83;;;0.97;;
19231;SDS011;9750;48.730;10.294;2023-11-19T11:35:12;0.93;;;0.87;;
19231;SDS011;9750;48.730;10.294;2023-11-19T11:37:53;0.67;;;0.67;;
19231;SDS011;9750;48.730;10.294;2023-11-19T11:40:26;0.83;;;0.80;;
19231;SDS011;9750;48.730;10.294;2023-11-19T11:42:55;1.10;;;1.00;;
19231;SDS011;9750;48.730;10.294;2023-11-19T11:45:34;1.83;;;0.97;;
19231;SDS011;9750;48.730;10.294;2023-11-19T11:48:12;1.00;;;0.87;;
19231;SDS011;9750;48.730;10.294;2023-11-19T11:50:52;1.10;;;1.00;;
19231;SDS011;9750;48.730;10.294;2023-11-19T11:53:22;1.50;;;1.00;;
19231;SDS011;9750;48.730;10.294;2023-11-19T11:55:53;1.00;;;0.90;;
19231;SDS011;9750;48.730;10.294;2023-11-19T11:58:29;1.57;;;0.87;;
19231;SDS011;9750;48.730;10.294;2023-11-19T12:00:58;1.10;;;1.00;;
19231;SDS011;9750;48.730;10.294;2023-11-19T12:03:28;1.07;;;0.90;;
19231;SDS011;9750;48.730;10.294;2023-11-19T12:05:56;1.10;;;1.00;;
19231;SDS011;9750;48.730;10.294;2023-11-19T12:08:25;0.97;;;0.90;;
19231;SDS011;9750;48.730;10.294;2023-11-19T12:10:54;1.73;;;0.90;;
19231;SDS011;9750;48.730;10.294;2023-11-19T12:13:24;2.17;;;1.10;;
19231;SDS011;9750;48.730;10.294;2023-11-19T12:19:03;0.93;;;0.93;;
19231;SDS011;9750;48.730;10.294;2023-11-19T12:21:31;0.80;;;0.80;;
19231;SDS011;9750;48.730;10.294;2023-11-19T12:23:59;1.10;;;1.00;;
19231;SDS011;9750;48.730;10.294;2023-11-19T12:26:39;1.50;;;0.70;;
19231;SDS011;9750;48.730;10.294;2023-11-19T12:29:08;1.20;;;1.10;;
19231;SDS011;9750;48.730;10.294;2023-11-19T12:31:36;1.00;;;0.90;;
19231;SDS011;9750;48.730;10.294;2023-11-19T12:34:07;0.83;;;0.80;;
19231;SDS011;9750;48.730;10.294;2023-11-19T12:36:38;2.00;;;0.93;;
19231;SDS011;9750;48.730;10.294;2023-11-19T12:39:07;4.00;;;1.30;;
19231;SDS011;9750;48.730;10.294;2023-11-19T12:41:51;1.10;;;0.80;;
19231;SDS011;9750;48.730;10.294;2023-11-19T12:44:25;1.10;;;0.90;;
19231;SDS011;9750;48.730;10.294;2023-11-19T12:46:59;1.23;;;0.93;;
19231;SDS011;9750;48.730;10.294;2023-11-19T12:49:27;1.20;;;1.10;;
19231;SDS011;9750;48.730;10.294;2023-11-19T12:51:54;1.43;;;1.00;;
19231;SDS011;9750;48.730;10.294;2023-11-19T12:54:31;1.20;;;1.10;;
19231;SDS011;9750;48.730;10.294;2023-11-19T12:56:59;1.07;;;1.07;;
19231;SDS011;9750;48.730;10.294;2023-11-19T12:59:28;0.97;;;0.93;;
19231;SDS011;9750;48.730;10.294;2023-11-19T13:01:56;2.90;;;1.10;;
19231;SDS011;9750;48.730;10.294;2023-11-19T13:04:27;1.53;;;1.20;;
19231;SDS011;9750;48.730;10.294;2023-11-19T13:06:55;1.07;;;0.97;;
19231;SDS011;9750;48.730;10.294;2023-11-19T13:09:23;1.10;;;1.00;;
19231;SDS011;9750;48.730;10.294;2023-11-19T13:11:51;2.20;;;1.20;;
19231;SDS011;9750;48.730;10.294;2023-11-19T13:14:19;1.33;;;0.90;;
19231;SDS011;9750;48.730;10.294;2023-11-19T13:16:48;1.63;;;1.20;;
19231;SDS011;9750;48.730;10.294;2023-11-19T13:19:15;1.77;;;1.13;;
19231;SDS011;9750;48.730;10.294;2023-11-19T13:21:44;1.47;;;1.00;;
19231;SDS011;9750;48.730;10.294;2023-11-19T13:24:13;2.37;;;1.00;;
19231;SDS011;9750;48.730;10.294;2023-11-19T13:26:40;1.17;;;1.00;;
19231;SDS011;9750;48.730;10.294;2023-11-19T13:29:08;2.40;;;1.70;;
19231;SDS011;9750;48.730;10.294;2023-11-19T13:31:36;18.30;;;11.17;;
19231;SDS011;9750;48.730;10.294;2023-11-19T13:34:17;6.63;;;4.33;;
19231;SDS011;9750;48.730;10.294;2023-11-19T13:36:45;21.03;;;12.50;;
19231;SDS011;9750;48.730;10.294;2023-11-19T13:39:12;2.90;;;1.90;;
19231;SDS011;9750;48.730;10.294;2023-11-19T13:41:47;1.30;;;1.20;;
19231;SDS011;9750;48.730;10.294;2023-11-19T13:44:15;1.20;;;1.10;;
19231;SDS011;9750;48.730;10.294;2023-11-19T13:46:44;1.07;;;1.00;;
19231;SDS011;9750;48.730;10.294;2023-11-19T13:49:12;1.33;;;1.20;;
19231;SDS011;9750;48.730;10.294;2023-11-19T13:51:42;2.80;;;2.60;;
19231;SDS011;9750;48.730;10.294;2023-11-19T13:54:09;1.60;;;1.33;;
19231;SDS011;9750;48.730;10.294;2023-11-19T13:56:39;1.20;;;1.10;;
19231;SDS011;9750;48.730;10.294;2023-11-19T13:59:06;1.40;;;1.30;;
19231;SDS011;9750;48.730;10.294;2023-11-19T14:01:34;2.60;;;1.20;;
19231;SDS011;9750;48.730;10.294;2023-11-19T14:04:02;1.10;;;1.00;;
19231;SDS011;9750;48.730;10.294;2023-11-19T14:06:34;1.87;;;1.20;;
19231;SDS011;9750;48.730;10.294;2023-11-19T14:09:07;2.27;;;1.20;;
19231;SDS011;9750;48.730;10.294;2023-11-19T14:11:35;0.77;;;0.77;;
19231;SDS011;9750;48.730;10.294;2023-11-19T14:14:02;2.47;;;1.00;;
19231;SDS011;9750;48.730;10.294;2023-11-19T14:16:30;1.47;;;1.00;;
19231;SDS011;9750;48.730;10.294;2023-11-19T14:18:57;2.30;;;0.90;;
19231;SDS011;9750;48.730;10.294;2023-11-19T14:21:31;2.13;;;1.20;;
19231;SDS011;9750;48.730;10.294;2023-11-19T14:24:54;0.90;;;0.90;;
19231;SDS011;9750;48.730;10.294;2023-11-19T14:27:22;3.03;;;1.10;;
19231;SDS011;9750;48.730;10.294;2023-11-19T14:29:49;1.50;;;1.00;;
19231;SDS011;9750;48.730;10.294;2023-11-19T14:32:17;2.20;;;0.90;;
19231;SDS011;9750;48.730;10.294;2023-11-19T14:34:44;1.57;;;1.10;;
19231;SDS011;9750;48.730;10.294;2023-11-19T14:37:11;1.23;;;0.80;;
19231;SDS011;9750;48.730;10.294;2023-11-19T14:39:38;4.47;;;3.77;;
19231;SDS011;9750;48.730;10.294;2023-11-19T14:42:08;2.37;;;1.60;;
19231;SDS011;9750;48.730;10.294;2023-11-19T14:44:35;1.20;;;0.93;;
19231;SDS011;9750;48.730;10.294;2023-11-19T14:47:02;7.43;;;5.83;;
19231;SDS011;9750;48.730;10.294;2023-11-19T14:49:30;7.07;;;5.73;;
19231;SDS011;9750;48.730;10.294;2023-11-19T14:51:57;6.43;;;5.03;;
19231;SDS011;9750;48.730;10.294;2023-11-19T14:54:24;1.70;;;1.17;;
19231;SDS011;9750;48.730;10.294;2023-11-19T14:56:52;1.30;;;1.07;;
19231;SDS011;9750;48.730;10.294;2023-11-19T14:59:20;3.70;;;1.60;;
19231;SDS011;9750;48.730;10.294;2023-11-19T15:01:48;4.20;;;3.33;;
19231;SDS011;9750;48.730;10.294;2023-11-19T15:04:15;2.50;;;1.23;;
19231;SDS011;9750;48.730;10.294;2023-11-19T15:06:42;1.23;;;1.20;;
19231;SDS011;9750;48.730;10.294;2023-11-19T15:09:10;1.43;;;1.20;;
19231;SDS011;9750;48.730;10.294;2023-11-19T15:11:42;2.00;;;1.57;;
19231;SDS011;9750;48.730;10.294;2023-11-19T15:14:11;1.63;;;1.27;;
19231;SDS011;9750;48.730;10.294;2023-11-19T15:16:41;1.90;;;1.13;;
19231;SDS011;9750;48.730;10.294;2023-11-19T15:19:09;2.10;;;1.10;;
19231;SDS011;9750;48.730;10.294;2023-11-19T15:21:37;2.00;;;1.30;;